Terminal Aerodrome Forecast
Issued by NWS

Home | Current Version | Previous Version | Text Only | Print | Product List | Glossary On
Versions: 1 2 3 4 5 6 7 8 9 10 11 12 13 14 15 16 17 18 19 20 21 22 23 24 25 26 27 28
000
FTUS43 KDLH 292300 AAC
TAFBRD
TAF AMD
KBRD 292300Z 2923/3018 34014KT P6SM SCT025 SCT035
     FM300300 35007KT P6SM SCT010 BKN150
     FM301500 21007KT P6SM SCT010 BKN060=

USA.gov is the U.S. government's official web portal to all federal, state and local government web resources and services.